createdAt,value
2023-01-09T00:00:24.005Z,32.87
2023-01-09T00:05:46.968Z,32.20
2023-01-09T00:10:52.461Z,32.20
2023-01-09T00:15:56.025Z,33.47
2023-01-09T00:21:03.807Z,32.40
2023-01-09T00:26:06.839Z,34.43
2023-01-09T00:31:10.888Z,33.03
2023-01-09T00:36:14.102Z,32.87
2023-01-09T00:41:20.677Z,33.50
2023-01-09T00:46:28.051Z,31.80
2023-01-09T00:51:31.509Z,33.17
2023-01-09T00:56:35.374Z,33.40
2023-01-09T01:01:38.699Z,32.60
2023-01-09T01:07:00.392Z,33.50
2023-01-09T01:12:07.499Z,31.97
2023-01-09T01:17:10.473Z,30.70
2023-01-09T01:22:13.710Z,31.80
2023-01-09T01:27:16.672Z,31.70
2023-01-09T01:32:19.928Z,30.70
2023-01-09T01:37:23.834Z,31.90
2023-01-09T01:42:26.863Z,32.40
2023-01-09T01:47:30.028Z,31.63
2023-01-09T01:52:34.435Z,31.47
2023-01-09T01:57:41.771Z,32.10
2023-01-09T02:02:46.213Z,32.60
2023-01-09T02:07:49.630Z,33.57
2023-01-09T02:12:52.844Z,31.37
2023-01-09T02:18:24.235Z,35.47
2023-01-09T02:23:46.917Z,34.33
2023-01-09T02:29:06.184Z,35.30
2023-01-09T02:34:31.208Z,33.17
2023-01-09T02:39:56.181Z,35.63
2023-01-09T02:44:59.368Z,35.97
2023-01-09T02:50:09.482Z,34.20
2023-01-09T02:55:27.911Z,34.20
2023-01-09T03:00:49.819Z,34.57
2023-01-09T03:06:06.963Z,35.77
2023-01-09T03:11:12.214Z,34.70
2023-01-09T03:16:18.907Z,35.03
2023-01-09T03:21:22.836Z,35.30
2023-01-09T03:26:26.395Z,35.07
2023-01-09T03:31:29.554Z,37.10
2023-01-09T03:36:33.006Z,34.50
2023-01-09T03:41:36.246Z,38.17
2023-01-09T03:46:39.577Z,35.03
2023-01-09T03:51:42.705Z,36.13
2023-01-09T03:56:46.092Z,36.33
2023-01-09T04:01:49.239Z,37.20
2023-01-09T04:06:52.321Z,37.57
2023-01-09T04:11:55.402Z,37.83
2023-01-09T04:16:58.319Z,36.43
2023-01-09T04:22:01.464Z,35.20
2023-01-09T04:27:04.524Z,37.10
2023-01-09T04:32:07.814Z,37.17
2023-01-09T04:37:11.141Z,37.60
2023-01-09T04:42:14.192Z,38.23
2023-01-09T04:47:17.206Z,37.30
2023-01-09T04:52:20.825Z,39.00
2023-01-09T04:57:24.072Z,38.23
2023-01-09T05:02:27.139Z,37.70
2023-01-09T05:07:30.224Z,37.17
2023-01-09T05:12:34.895Z,37.50
2023-01-09T05:17:38.022Z,38.07
2023-01-09T05:22:41.108Z,37.47
2023-01-09T05:27:46.488Z,37.70
2023-01-09T05:32:49.452Z,37.80
2023-01-09T05:37:52.713Z,37.07
2023-01-09T05:42:56.505Z,36.90
2023-01-09T05:47:59.725Z,37.53
2023-01-09T05:53:02.901Z,37.63
2023-01-09T05:58:06.384Z,36.93
2023-01-09T06:03:09.398Z,36.27
2023-01-09T06:08:12.224Z,38.40
2023-01-09T06:13:15.682Z,37.23
2023-01-09T06:18:18.664Z,39.67
2023-01-09T06:23:21.530Z,38.77
2023-01-09T06:28:26.962Z,40.43
2023-01-09T06:33:30.147Z,39.27
2023-01-09T06:38:33.103Z,39.50
2023-01-09T06:43:36.278Z,39.73
2023-01-09T06:48:39.405Z,40.37
2023-01-09T06:53:42.286Z,38.70
2023-01-09T06:58:45.182Z,38.37
2023-01-09T07:03:48.789Z,39.93
2023-01-09T07:08:51.737Z,39.90
2023-01-09T07:13:54.721Z,40.83
2023-01-09T07:18:57.793Z,38.37
2023-01-09T07:24:00.909Z,40.27
2023-01-09T07:29:03.858Z,42.13
2023-01-09T07:34:06.689Z,39.77
2023-01-09T07:39:09.886Z,42.83
2023-01-09T07:44:13.381Z,39.93
2023-01-09T07:49:16.447Z,40.87
2023-01-09T07:54:19.388Z,41.23
2023-01-09T07:59:22.583Z,43.10
2023-01-09T08:04:25.387Z,40.20
2023-01-09T08:09:29.040Z,40.47
2023-01-09T08:14:32.271Z,43.17
2023-01-09T08:19:35.194Z,40.17
2023-01-09T08:24:38.012Z,44.00
2023-01-09T08:29:40.915Z,42.60
2023-01-09T08:34:44.050Z,53.77
2023-01-09T08:39:48.655Z,45.33
2023-01-09T08:45:10.330Z,44.37
2023-01-09T08:50:13.630Z,44.40
2023-01-09T08:55:16.923Z,43.17
2023-01-09T09:00:22.189Z,47.23
2023-01-09T09:05:26.854Z,42.87
2023-01-09T09:10:30.541Z,42.47
2023-01-09T09:15:35.059Z,42.23
2023-01-09T09:20:39.099Z,41.57
2023-01-09T09:25:42.255Z,42.17
2023-01-09T09:30:47.903Z,40.93
2023-01-09T09:35:52.381Z,40.57
2023-01-09T09:41:04.955Z,40.77
2023-01-09T09:46:19.985Z,39.40
2023-01-09T09:51:22.965Z,41.10
2023-01-09T09:56:26.814Z,41.70
2023-01-09T10:01:53.331Z,41.03
2023-01-09T10:07:09.991Z,39.43
2023-01-09T10:12:26.084Z,40.17
2023-01-09T10:17:40.874Z,41.63
2023-01-09T10:23:17.919Z,40.07
2023-01-09T10:28:39.386Z,40.87
2023-01-09T10:33:56.387Z,41.43
2023-01-09T10:39:04.569Z,38.67
2023-01-09T10:44:20.604Z,40.13
2023-01-09T10:49:26.830Z,39.40
2023-01-09T10:54:33.069Z,41.40
2023-01-09T10:59:36.404Z,41.47
2023-01-09T11:04:40.011Z,41.20
2023-01-09T11:10:01.015Z,41.03
2023-01-09T11:15:16.494Z,42.33
2023-01-09T11:20:27.643Z,39.73
2023-01-09T11:25:30.667Z,48.30
2023-01-09T11:30:37.585Z,40.07
2023-01-09T11:35:53.605Z,38.63
2023-01-09T11:41:02.021Z,39.77
2023-01-09T11:46:08.360Z,40.80
2023-01-09T11:51:20.894Z,43.87
2023-01-09T11:56:24.211Z,43.80
2023-01-09T12:01:52.101Z,43.30
2023-01-09T12:07:25.653Z,44.63
2023-01-09T12:12:49.780Z,49.97
2023-01-09T12:18:16.359Z,42.90
2023-01-09T12:23:22.446Z,37.97
2023-01-09T12:28:43.777Z,44.13
2023-01-09T12:33:56.325Z,46.73
2023-01-09T12:39:17.673Z,40.10
2023-01-09T12:44:55.939Z,45.90
2023-01-09T12:50:22.023Z,44.43
2023-01-09T12:55:26.379Z,41.87
2023-01-09T13:00:35.713Z,44.97
2023-01-09T13:05:47.257Z,47.50
2023-01-09T13:10:53.710Z,45.03
2023-01-09T13:16:05.165Z,47.07
2023-01-09T13:21:10.969Z,46.27
2023-01-09T13:26:27.385Z,43.77
2023-01-09T13:31:48.015Z,50.07
2023-01-09T13:36:52.979Z,45.20
2023-01-09T13:42:18.637Z,45.00
2023-01-09T13:47:25.544Z,46.13
2023-01-09T13:52:37.208Z,46.27
2023-01-09T13:57:48.022Z,47.17
2023-01-09T14:02:56.275Z,45.60
2023-01-09T14:08:32.317Z,45.17
2023-01-09T14:13:45.843Z,48.43
2023-01-09T14:18:51.710Z,46.70
2023-01-09T14:24:06.701Z,47.83
2023-01-09T14:29:29.520Z,50.63
2023-01-09T14:34:36.360Z,48.00
2023-01-09T14:39:44.247Z,51.83
2023-01-09T14:45:01.680Z,48.47
2023-01-09T14:50:34.620Z,48.33
2023-01-09T14:55:53.066Z,46.40
2023-01-09T15:01:16.928Z,46.97
2023-01-09T15:06:25.356Z,47.27
2023-01-09T15:11:28.885Z,44.37
2023-01-09T15:16:32.661Z,48.27
2023-01-09T15:21:35.757Z,45.50
2023-01-09T15:26:40.085Z,47.13
2023-01-09T15:31:46.069Z,47.13
2023-01-09T15:36:50.731Z,46.80
2023-01-09T15:42:13.660Z,48.27
2023-01-09T15:47:19.475Z,46.60
2023-01-09T15:52:23.276Z,43.80
2023-01-09T15:57:26.391Z,42.50
2023-01-09T16:02:48.049Z,44.33
2023-01-09T16:07:51.691Z,43.83
2023-01-09T16:12:54.955Z,44.27
2023-01-09T16:18:16.128Z,44.30
2023-01-09T16:23:21.125Z,44.00
2023-01-09T16:28:29.019Z,43.83
2023-01-09T16:33:33.427Z,45.77
2023-01-09T16:38:38.821Z,44.97
2023-01-09T16:43:41.747Z,46.40
2023-01-09T16:48:44.907Z,46.53
2023-01-09T16:53:48.907Z,45.07
2023-01-09T16:58:55.475Z,46.17
2023-01-09T17:03:58.470Z,45.23
2023-01-09T17:09:01.519Z,46.20
2023-01-09T17:14:04.786Z,45.87
2023-01-09T17:19:10.696Z,45.77
2023-01-09T17:24:32.711Z,52.43
2023-01-09T17:29:36.433Z,45.20
2023-01-09T17:34:42.066Z,45.93
2023-01-09T17:39:45.897Z,49.03
2023-01-09T17:49:45.818Z,50.57
2023-01-09T17:54:49.065Z,54.63
2023-01-09T17:59:52.450Z,66.60
2023-01-09T18:04:55.766Z,55.97
2023-01-09T18:09:59.832Z,50.03
2023-01-09T18:15:03.021Z,48.40
2023-01-09T18:20:06.783Z,49.57
2023-01-09T18:25:10.485Z,49.33
2023-01-09T18:30:13.886Z,54.60
2023-01-09T18:35:17.004Z,54.77
2023-01-09T18:40:20.087Z,61.90
2023-01-09T18:45:25.736Z,54.10
2023-01-09T18:50:28.979Z,52.80
2023-01-09T18:55:32.643Z,52.60
2023-01-09T19:00:37.166Z,55.07
2023-01-09T19:05:40.309Z,51.80
2023-01-09T19:10:43.500Z,49.23
2023-01-09T19:15:46.666Z,47.80
2023-01-09T19:20:49.760Z,47.57
2023-01-09T19:25:53.917Z,51.00
2023-01-09T19:30:59.097Z,48.77
2023-01-09T19:36:02.181Z,50.93
2023-01-09T19:41:18.224Z,51.77
2023-01-09T19:46:25.185Z,51.60
2023-01-09T19:51:28.373Z,51.37
2023-01-09T19:56:34.305Z,49.50
2023-01-09T20:01:42.091Z,47.20
2023-01-09T20:06:48.091Z,46.13
2023-01-09T20:11:51.682Z,49.87
2023-01-09T20:17:00.146Z,47.63
2023-01-09T20:22:03.395Z,46.43
2023-01-09T20:27:06.754Z,50.83
2023-01-09T20:32:10.546Z,44.50
2023-01-09T20:37:13.899Z,38.70
2023-01-09T20:42:19.772Z,38.77
2023-01-09T20:47:22.990Z,36.50
2023-01-09T20:52:27.928Z,32.50
2023-01-09T20:57:31.145Z,31.83
2023-01-09T21:02:35.348Z,32.47
2023-01-09T21:07:38.423Z,29.53
2023-01-09T21:12:42.245Z,27.17
2023-01-09T21:17:46.008Z,27.10
2023-01-09T21:22:49.955Z,25.33
2023-01-09T21:27:53.348Z,26.77
2023-01-09T21:32:56.458Z,24.00
2023-01-09T21:37:59.446Z,24.53
2023-01-09T21:43:21.303Z,22.10
2023-01-09T21:48:24.345Z,21.83
2023-01-09T21:53:27.713Z,22.97
2023-01-09T21:58:30.596Z,22.43
2023-01-09T22:03:33.886Z,22.70
2023-01-09T22:08:37.085Z,23.10
2023-01-09T22:13:40.391Z,21.67
2023-01-09T22:18:43.651Z,26.23
2023-01-09T22:23:46.810Z,22.67
2023-01-09T22:28:50.954Z,18.87
2023-01-09T22:33:58.658Z,17.60
2023-01-09T22:39:02.382Z,18.60
2023-01-09T22:44:05.800Z,19.00
2023-01-09T22:49:12.282Z,17.50
2023-01-09T22:54:15.558Z,19.23
2023-01-09T22:59:18.583Z,16.27
2023-01-09T23:04:22.211Z,16.80
2023-01-09T23:09:25.585Z,16.97
2023-01-09T23:14:32.634Z,17.57
2023-01-09T23:19:36.031Z,16.43
2023-01-09T23:24:39.083Z,16.90
2023-01-09T23:29:42.104Z,17.00
2023-01-09T23:34:47.152Z,17.27
2023-01-09T23:39:50.216Z,17.07
2023-01-09T23:44:53.143Z,18.40
2023-01-09T23:49:56.036Z,14.57
2023-01-09T23:54:59.057Z,15.83
